createdAt,value
2022-10-03T00:01:58.259Z,10.46
2022-10-03T00:08:18.204Z,10.38
2022-10-03T00:14:41.206Z,10.29
2022-10-03T00:21:01.182Z,10.22
2022-10-03T00:27:24.189Z,10.11
2022-10-03T00:33:44.221Z,9.98
2022-10-03T00:40:07.184Z,9.91
2022-10-03T00:46:27.279Z,9.83
2022-10-03T00:52:50.207Z,9.75
2022-10-03T00:59:10.211Z,9.69
2022-10-03T01:05:33.170Z,9.63
2022-10-03T01:11:53.240Z,9.57
2022-10-03T01:18:16.169Z,9.52
2022-10-03T01:24:36.245Z,9.42
2022-10-03T01:30:59.264Z,9.37
2022-10-03T01:37:19.205Z,9.34
2022-10-03T01:43:42.210Z,9.31
2022-10-03T01:50:02.195Z,9.28
2022-10-03T01:56:25.205Z,9.26
2022-10-03T02:02:45.184Z,9.25
2022-10-03T02:09:08.234Z,9.21
2022-10-03T02:15:28.156Z,9.21
2022-10-03T02:21:51.188Z,9.28
2022-10-03T02:28:11.237Z,9.33
2022-10-03T02:34:34.174Z,9.4
2022-10-03T02:40:54.277Z,9.42
2022-10-03T02:47:17.195Z,9.5
2022-10-03T02:53:37.205Z,9.6
2022-10-03T03:00:00.190Z,9.71
2022-10-03T03:06:20.254Z,9.8
2022-10-03T03:12:43.172Z,9.87
2022-10-03T03:29:35.083Z,9.93
2022-10-03T03:35:58.181Z,9.95
2022-10-03T03:42:18.288Z,9.93
2022-10-03T03:48:41.211Z,9.8
2022-10-03T03:55:01.207Z,9.62
2022-10-03T04:01:24.287Z,9.48
2022-10-03T04:07:44.197Z,9.41
2022-10-03T04:14:07.212Z,9.33
2022-10-03T04:20:27.151Z,9.31
2022-10-03T04:26:50.317Z,9.24
2022-10-03T04:33:10.192Z,9.17
2022-10-03T04:39:33.173Z,9.07
2022-10-03T04:45:54.253Z,9.02
2022-10-03T04:52:17.158Z,8.97
2022-10-03T04:58:37.152Z,8.95
2022-10-03T05:05:00.282Z,9
2022-10-03T05:11:20.331Z,9.06
2022-10-03T05:17:43.193Z,9.09
2022-10-03T05:24:03.257Z,9.13
2022-10-03T05:30:26.148Z,9.05
2022-10-03T05:36:46.187Z,8.95
2022-10-03T05:43:10.185Z,8.93
2022-10-03T05:49:30.201Z,9.01
2022-10-03T05:55:53.210Z,9.07
2022-10-03T06:02:13.308Z,9.13
2022-10-03T06:08:36.255Z,9.18
2022-10-03T06:14:56.179Z,9.18
2022-10-03T06:21:19.227Z,9.2
2022-10-03T06:27:39.243Z,9.24
2022-10-03T06:34:02.165Z,9.26
2022-10-03T06:40:22.279Z,9.38
2022-10-03T06:46:45.193Z,9.48
2022-10-03T06:53:05.246Z,9.52
2022-10-03T06:59:28.241Z,9.63
2022-10-03T07:05:48.205Z,9.71
2022-10-03T07:12:14.233Z,9.77
2022-10-03T07:18:31.280Z,9.84
2022-10-03T07:24:54.189Z,9.99
2022-10-03T07:31:14.297Z,10.18
2022-10-03T07:37:37.197Z,10.36
2022-10-03T07:43:57.166Z,10.6
2022-10-03T07:50:20.184Z,10.83
2022-10-03T07:56:40.380Z,11.06
2022-10-03T08:03:03.294Z,11.25
2022-10-03T08:09:23.171Z,11.44
2022-10-03T08:15:46.303Z,11.6
2022-10-03T08:22:06.221Z,11.74
2022-10-03T08:46:05.144Z,12.57
2022-10-03T08:52:28.192Z,12.65
2022-10-03T08:58:48.241Z,12.74
2022-10-03T09:05:11.487Z,13.07
2022-10-03T09:11:31.475Z,13.44
2022-10-03T09:17:55.161Z,13.71
2022-10-03T09:24:15.202Z,13.85
2022-10-03T09:30:38.219Z,14.1
2022-10-03T09:36:58.184Z,14.09
2022-10-03T09:43:21.230Z,14.24
2022-10-03T09:49:41.210Z,14.58
2022-10-03T09:56:04.184Z,14.74
2022-10-03T10:02:24.282Z,15.08
2022-10-03T10:08:47.226Z,15.54
2022-10-03T10:15:07.211Z,15.78
2022-10-03T10:21:30.231Z,16.07
2022-10-03T10:27:50.216Z,16.3
2022-10-03T10:34:13.195Z,16.78
2022-10-03T10:40:33.177Z,17.2
2022-10-03T10:46:56.197Z,17.02
2022-10-03T10:53:16.151Z,16.87
2022-10-03T10:59:39.172Z,16.75
2022-10-03T11:06:00.190Z,16.62
2022-10-03T11:12:23.167Z,16.78
2022-10-03T11:18:43.200Z,17.49
2022-10-03T11:25:06.175Z,17.97
2022-10-03T11:31:26.276Z,18.1
2022-10-03T11:37:49.203Z,17.96
2022-10-03T11:44:09.161Z,17.8
2022-10-03T11:50:32.156Z,17.78
2022-10-03T11:56:52.203Z,17.37
2022-10-03T12:03:15.330Z,17.15
2022-10-03T12:09:35.213Z,17.74
2022-10-03T12:15:58.293Z,18.72
2022-10-03T12:22:18.162Z,18.89
2022-10-03T12:28:41.160Z,18.51
2022-10-03T12:35:01.189Z,18.32
2022-10-03T12:41:24.208Z,17.99
2022-10-03T12:47:55.165Z,17.67
2022-10-03T12:54:07.219Z,17.32
2022-10-03T13:00:27.202Z,17.15
2022-10-03T13:07:04.869Z,16.96
2022-10-03T13:13:10.211Z,16.99
2022-10-03T13:19:33.231Z,17.46
2022-10-03T13:25:53.152Z,18.05
2022-10-03T13:32:16.178Z,18.5
2022-10-03T13:38:36.147Z,18.51
2022-10-03T13:44:59.222Z,18.32
2022-10-03T14:01:25.144Z,17.92
2022-10-03T14:07:45.143Z,17.99
2022-10-03T14:14:08.159Z,18.14
2022-10-03T14:20:28.179Z,18.16
2022-10-03T14:26:51.148Z,18.13
2022-10-03T14:33:11.223Z,18.1
2022-10-03T14:39:34.198Z,17.98
2022-10-03T14:45:54.250Z,17.79
2022-10-03T14:52:17.181Z,17.71
2022-10-03T14:58:37.174Z,17.83
2022-10-03T15:05:00.195Z,18.01
2022-10-03T15:11:20.158Z,18.02
2022-10-03T15:17:43.188Z,18.04
2022-10-03T15:24:03.219Z,17.93
2022-10-03T15:30:30.807Z,17.84
2022-10-03T15:36:46.311Z,17.73
2022-10-03T15:43:09.161Z,17.6
2022-10-03T15:49:29.155Z,17.44
2022-10-03T15:55:52.197Z,17.27
2022-10-03T16:02:12.406Z,17.13
2022-10-03T16:08:35.441Z,16.97
2022-10-03T16:14:55.180Z,16.8
2022-10-03T16:21:18.168Z,16.64
2022-10-03T16:27:38.180Z,16.45
2022-10-03T16:34:01.231Z,16.23
2022-10-03T16:40:21.196Z,16
2022-10-03T16:46:44.165Z,15.75
2022-10-03T16:53:04.215Z,15.49
2022-10-03T16:59:27.223Z,15.25
2022-10-03T17:05:47.171Z,14.98
2022-10-03T17:12:10.240Z,14.74
2022-10-03T17:18:30.164Z,14.5
2022-10-03T17:24:53.186Z,14.27
2022-10-03T17:31:13.317Z,14.04
2022-10-03T17:37:36.205Z,13.83
2022-10-03T17:43:56.185Z,13.66
2022-10-03T17:50:19.172Z,13.52
2022-10-03T17:56:39.206Z,13.4
2022-10-03T18:03:02.168Z,13.3
2022-10-03T18:09:22.261Z,13.19
2022-10-03T18:15:45.292Z,13.09
2022-10-03T18:22:05.170Z,12.95
2022-10-03T18:28:28.584Z,12.83
2022-10-03T18:34:48.165Z,12.72
2022-10-03T18:41:11.200Z,12.65
2022-10-03T18:47:31.167Z,12.6
2022-10-03T18:53:54.176Z,12.54
2022-10-03T19:17:35.167Z,12.24
2022-10-03T19:23:55.149Z,12.12
2022-10-03T19:30:18.223Z,12
2022-10-03T19:36:38.191Z,11.9
2022-10-03T19:43:01.166Z,11.87
2022-10-03T19:49:21.163Z,11.81
2022-10-03T19:55:44.190Z,11.75
2022-10-03T20:02:04.462Z,11.71
2022-10-03T20:08:27.166Z,11.7
2022-10-03T20:14:47.168Z,11.7
2022-10-03T20:21:10.184Z,11.72
2022-10-03T20:27:30.253Z,11.69
2022-10-03T20:33:53.200Z,11.63
2022-10-03T20:40:13.208Z,11.57
2022-10-03T20:46:36.199Z,11.51
2022-10-03T20:52:56.234Z,11.42
2022-10-03T20:59:19.175Z,11.29
2022-10-03T21:05:39.194Z,11.13
2022-10-03T21:12:02.207Z,10.96
2022-10-03T21:18:22.152Z,10.88
2022-10-03T21:24:45.263Z,10.81
2022-10-03T21:31:05.193Z,10.76
2022-10-03T21:37:28.257Z,10.7
2022-10-03T21:43:48.471Z,10.61
2022-10-03T21:50:11.195Z,10.48
2022-10-03T21:56:31.204Z,10.39
2022-10-03T22:20:48.282Z,10.16
2022-10-03T22:27:08.172Z,10.13
2022-10-03T22:33:31.197Z,10.07
2022-10-03T22:39:51.198Z,10.01
2022-10-03T22:46:14.235Z,9.93
2022-10-03T22:52:34.173Z,9.88
2022-10-03T22:58:57.256Z,9.85
2022-10-03T23:05:17.199Z,9.81
2022-10-03T23:11:40.388Z,9.78
2022-10-03T23:18:00.233Z,9.73
2022-10-03T23:24:23.170Z,9.68
2022-10-03T23:30:43.235Z,9.66
2022-10-03T23:37:06.213Z,9.62
2022-10-03T23:43:26.204Z,9.51
2022-10-03T23:49:49.185Z,9.39
2022-10-03T23:56:09.202Z,9.33
